createdAt,value
2023-03-29T00:00:35.981Z,100365.50
2023-03-29T00:03:17.302Z,100361.59
2023-03-29T00:05:47.577Z,100361.81
2023-03-29T00:08:19.573Z,100354.34
2023-03-29T00:10:52.350Z,100357.41
2023-03-29T00:13:21.664Z,100368.66
2023-03-29T00:15:48.946Z,100357.75
2023-03-29T00:18:16.424Z,100363.63
2023-03-29T00:20:46.410Z,100359.25
2023-03-29T00:23:13.457Z,100347.72
2023-03-29T00:25:47.107Z,100353.06
2023-03-29T00:28:14.827Z,100357.19
2023-03-29T00:30:42.842Z,100354.38
2023-03-29T00:33:11.808Z,100361.69
2023-03-29T00:35:43.940Z,100362.03
2023-03-29T00:38:10.987Z,100363.25
2023-03-29T00:40:43.850Z,100363.44
2023-03-29T00:43:12.394Z,100355.94
2023-03-29T00:45:39.707Z,100369.88
2023-03-29T00:48:09.034Z,100372.56
2023-03-29T00:50:42.768Z,100370.13
2023-03-29T00:53:16.167Z,100370.44
2023-03-29T00:55:52.627Z,100374.22
2023-03-29T00:58:27.822Z,100366.34
2023-03-29T01:01:02.599Z,100369.25
2023-03-29T01:03:36.039Z,100358.72
2023-03-29T01:06:06.536Z,100365.75
2023-03-29T01:08:39.981Z,100356.19
2023-03-29T01:11:23.573Z,100352.00
2023-03-29T01:14:02.656Z,100355.34
2023-03-29T01:16:33.286Z,100350.88
2023-03-29T01:19:02.453Z,100353.59
2023-03-29T01:21:51.590Z,100352.56
2023-03-29T01:24:34.401Z,100352.09
2023-03-29T01:27:12.517Z,100353.06
2023-03-29T01:29:47.698Z,100345.81
2023-03-29T01:32:17.417Z,100344.72
2023-03-29T01:34:44.705Z,100351.94
2023-03-29T01:37:21.984Z,100341.59
2023-03-29T01:39:49.226Z,100344.38
2023-03-29T01:42:25.086Z,100340.59
2023-03-29T01:44:59.168Z,100328.25
2023-03-29T01:47:35.668Z,100334.13
2023-03-29T01:50:02.662Z,100333.00
2023-03-29T01:52:35.920Z,100323.50
2023-03-29T01:55:11.244Z,100325.53
2023-03-29T01:57:49.720Z,100317.38
2023-03-29T02:00:22.969Z,100311.63
2023-03-29T02:02:55.144Z,100313.69
2023-03-29T02:05:23.763Z,100315.78
2023-03-29T02:07:53.463Z,100309.41
2023-03-29T02:10:21.799Z,100310.94
2023-03-29T02:12:51.160Z,100304.84
2023-03-29T02:15:19.919Z,100312.31
2023-03-29T02:17:51.969Z,100304.50
2023-03-29T02:20:19.697Z,100310.34
2023-03-29T02:22:56.152Z,100312.22
2023-03-29T02:25:25.880Z,100307.63
2023-03-29T02:27:54.368Z,100321.13
2023-03-29T02:30:22.285Z,100315.88
2023-03-29T02:33:08.523Z,100325.63
2023-03-29T02:35:50.248Z,100320.78
2023-03-29T02:38:19.979Z,100318.06
2023-03-29T02:40:47.443Z,100319.09
2023-03-29T02:43:19.150Z,100325.72
2023-03-29T02:45:49.768Z,100322.31
2023-03-29T02:48:21.892Z,100320.63
2023-03-29T02:50:51.306Z,100318.50
2023-03-29T02:53:29.141Z,100328.53
2023-03-29T02:55:56.712Z,100323.84
2023-03-29T02:58:26.769Z,100324.13
2023-03-29T03:00:56.922Z,100316.34
2023-03-29T03:03:26.150Z,100320.28
2023-03-29T03:05:54.587Z,100316.34
2023-03-29T03:08:24.191Z,100316.97
2023-03-29T03:10:54.412Z,100323.50
2023-03-29T03:13:22.939Z,100323.16
2023-03-29T03:15:50.354Z,100311.44
2023-03-29T03:18:19.598Z,100309.81
2023-03-29T03:20:55.875Z,100318.72
2023-03-29T03:23:25.127Z,100299.88
2023-03-29T03:25:53.241Z,100302.94
2023-03-29T03:28:22.190Z,100292.84
2023-03-29T03:30:49.907Z,100292.91
2023-03-29T03:33:24.945Z,100289.09
2023-03-29T03:36:19.310Z,100296.16
2023-03-29T03:38:49.807Z,100294.63
2023-03-29T03:41:17.109Z,100286.06
2023-03-29T03:43:48.823Z,100291.59
2023-03-29T03:46:17.960Z,100287.31
2023-03-29T03:48:47.588Z,100287.31
2023-03-29T03:51:29.785Z,100289.19
2023-03-29T03:53:59.492Z,100290.28
2023-03-29T03:56:35.674Z,100286.06
2023-03-29T03:59:25.225Z,100282.66
2023-03-29T04:02:22.217Z,100283.19
2023-03-29T04:04:50.148Z,100276.28
2023-03-29T04:07:19.146Z,100274.44
2023-03-29T04:10:24.622Z,100277.84
2023-03-29T04:13:02.652Z,100281.38
2023-03-29T04:15:33.984Z,100274.78
2023-03-29T04:18:09.008Z,100270.38
2023-03-29T04:20:51.395Z,100266.97
2023-03-29T16:24:00.283Z,99938.97
2023-03-29T16:26:27.806Z,99937.22
2023-03-29T16:28:55.523Z,99928.69
2023-03-29T16:31:27.187Z,99940.22
2023-03-29T16:33:54.251Z,99937.97
2023-03-29T16:36:21.648Z,99933.94
2023-03-29T16:43:20.068Z,99926.94
2023-03-29T16:45:47.165Z,99933.44
2023-03-29T16:48:17.432Z,99925.91
2023-03-29T16:50:45.085Z,99929.41
2023-03-29T16:53:12.675Z,99928.41
2023-03-29T16:55:40.514Z,99929.38
2023-03-29T16:58:07.743Z,99929.63
2023-03-29T17:00:35.273Z,99929.63
2023-03-29T17:03:03.115Z,99918.09
2023-03-29T17:05:30.381Z,99927.84
2023-03-29T17:07:59.793Z,99915.28
2023-03-29T17:10:26.708Z,99915.78
2023-03-29T17:12:54.104Z,99919.81
2023-03-29T17:15:21.316Z,99918.03
2023-03-29T17:17:48.837Z,99918.56
2023-03-29T17:20:18.601Z,99923.53
2023-03-29T17:22:46.481Z,99934.31
2023-03-29T17:25:13.788Z,99922.56
2023-03-29T17:27:41.297Z,99932.56
2023-03-29T17:30:08.660Z,99931.28
2023-03-29T17:32:36.592Z,99930.53
2023-03-29T17:35:05.983Z,99919.78
2023-03-29T17:37:33.420Z,99925.53
2023-03-29T17:40:01.019Z,99929.75
2023-03-29T17:42:32.121Z,99929.00
2023-03-29T17:45:03.098Z,99929.00
2023-03-29T17:47:33.078Z,99932.50
2023-03-29T17:50:01.383Z,99929.00
2023-03-29T17:52:29.368Z,99932.28
2023-03-29T17:54:56.813Z,99925.22
2023-03-29T17:57:24.167Z,99920.44
2023-03-29T17:59:51.479Z,99927.47
2023-03-29T18:02:23.464Z,99920.97
2023-03-29T18:04:51.998Z,99924.72
2023-03-29T18:07:23.128Z,99924.94
2023-03-29T18:09:52.358Z,99930.47
2023-03-29T18:12:20.111Z,99929.72
2023-03-29T18:14:49.227Z,99929.72
2023-03-29T18:17:17.360Z,99932.47
2023-03-29T18:19:44.637Z,99926.69
2023-03-29T18:22:14.713Z,99925.44
2023-03-29T18:24:42.147Z,99927.97
2023-03-29T18:27:10.090Z,99927.19
2023-03-29T18:29:37.810Z,99931.94
2023-03-29T18:32:06.372Z,99929.72
2023-03-29T18:34:35.263Z,99946.00
2023-03-29T18:37:03.734Z,99932.44
2023-03-29T18:39:32.421Z,99937.47
2023-03-29T18:42:01.476Z,99932.69
2023-03-29T18:44:29.408Z,99937.94
2023-03-29T18:47:00.094Z,99929.13
2023-03-29T18:49:28.429Z,99928.13
2023-03-29T18:51:59.361Z,99943.91
2023-03-29T18:54:27.431Z,99938.66
2023-03-29T18:56:57.900Z,99935.63
2023-03-29T18:59:26.799Z,99935.63
2023-03-29T19:01:54.901Z,99933.38
2023-03-29T19:04:24.434Z,99931.88
2023-03-29T19:06:54.683Z,99934.16
2023-03-29T19:09:22.877Z,99930.63
2023-03-29T19:11:51.355Z,99933.88
2023-03-29T19:14:24.251Z,99934.38
2023-03-29T19:16:56.299Z,99947.38
2023-03-29T19:19:25.097Z,99932.63
2023-03-29T19:21:59.808Z,99933.09
2023-03-29T19:24:28.645Z,99933.56
2023-03-29T19:26:58.356Z,99929.56
2023-03-29T19:29:26.813Z,99937.28
2023-03-29T19:31:55.300Z,99935.75
2023-03-29T19:34:26.198Z,99931.69
2023-03-29T19:36:55.755Z,99933.63
2023-03-29T19:39:25.161Z,99942.09
2023-03-29T19:41:53.128Z,99940.97
2023-03-29T19:44:21.713Z,99950.13
2023-03-29T19:46:49.856Z,99942.47
2023-03-29T19:49:17.425Z,99941.63
2023-03-29T19:51:45.608Z,99932.22
2023-03-29T19:54:14.348Z,99936.09
2023-03-29T19:56:43.225Z,99939.22
2023-03-29T19:59:12.357Z,99941.81
2023-03-29T20:01:42.859Z,99924.19
2023-03-29T20:04:10.301Z,99928.59
2023-03-29T20:06:38.390Z,99924.94
2023-03-29T20:09:06.008Z,99926.13
2023-03-29T20:11:33.460Z,99928.59
2023-03-29T20:14:01.076Z,99923.84
2023-03-29T20:16:29.940Z,99920.41
2023-03-29T20:19:03.357Z,99936.84
2023-03-29T20:21:31.105Z,99925.91
2023-03-29T20:23:58.012Z,99912.50
2023-03-29T20:26:26.400Z,99910.09
2023-03-29T20:28:53.676Z,99894.91
2023-03-29T20:31:21.877Z,99918.72
2023-03-29T20:33:49.432Z,99901.28
2023-03-29T20:36:23.327Z,99910.81
2023-03-29T20:38:51.428Z,99906.81
2023-03-29T20:41:19.884Z,99899.09
2023-03-29T20:43:47.147Z,99904.59
2023-03-29T20:46:22.458Z,99906.13
2023-03-29T20:48:55.668Z,99914.38
2023-03-29T20:51:33.262Z,99906.94
2023-03-29T20:54:05.596Z,99902.19
2023-03-29T20:56:38.995Z,99897.19
2023-03-29T20:59:10.930Z,99892.38
2023-03-29T21:01:41.111Z,99893.34
2023-03-29T21:04:10.064Z,99886.81
2023-03-29T21:06:39.651Z,99891.06
2023-03-29T21:09:10.116Z,99880.00
2023-03-29T21:11:37.744Z,99882.25
2023-03-29T21:14:04.895Z,99881.97
2023-03-29T21:16:32.279Z,99871.19
2023-03-29T21:18:59.444Z,99868.94
2023-03-29T21:21:30.089Z,99875.38
2023-03-29T21:23:57.301Z,99874.38
2023-03-29T21:26:25.478Z,99872.38
2023-03-29T21:28:52.739Z,99869.38
2023-03-29T21:31:20.359Z,99864.38
2023-03-29T21:33:47.471Z,99872.63
2023-03-29T21:36:16.660Z,99863.88
2023-03-29T21:38:43.982Z,99870.09
2023-03-29T21:41:13.933Z,99867.34
2023-03-29T21:43:41.133Z,99864.59
2023-03-29T21:46:09.067Z,99852.88
2023-03-29T21:48:36.679Z,99855.06
2023-03-29T21:51:07.237Z,99850.59
2023-03-29T21:53:38.208Z,99842.38
2023-03-29T21:56:07.638Z,99848.94
2023-03-29T21:58:35.545Z,99847.66
2023-03-29T22:01:05.417Z,99844.91
2023-03-29T22:03:37.894Z,99848.88
2023-03-29T22:06:13.225Z,99841.59
2023-03-29T22:08:46.933Z,99838.84
2023-03-29T22:11:16.168Z,99835.81
2023-03-29T22:13:45.287Z,99835.56
2023-03-29T22:16:16.721Z,99839.34
2023-03-29T22:18:47.096Z,99835.06
2023-03-29T22:21:17.660Z,99835.06
2023-03-29T22:23:46.580Z,99823.06
2023-03-29T22:26:15.770Z,99820.25
2023-03-29T22:28:44.377Z,99827.47
2023-03-29T22:31:13.558Z,99825.97
2023-03-29T22:33:40.912Z,99828.50
2023-03-29T22:36:21.159Z,99823.22
2023-03-29T22:38:51.483Z,99833.78
2023-03-29T22:41:24.041Z,99835.50
2023-03-29T22:43:52.892Z,99833.22
2023-03-29T22:46:21.219Z,99823.16
2023-03-29T22:48:48.816Z,99831.25
2023-03-29T22:51:17.590Z,99824.19
2023-03-29T22:53:44.711Z,99825.13
2023-03-29T22:56:13.458Z,99824.06
2023-03-29T22:58:40.964Z,99826.41
2023-03-29T23:01:08.600Z,99820.06
2023-03-29T23:03:36.152Z,99818.78
2023-03-29T23:06:03.655Z,99818.44
2023-03-29T23:08:31.911Z,99819.13
2023-03-29T23:10:59.711Z,99809.41
2023-03-29T23:13:28.991Z,99811.09
2023-03-29T23:15:59.125Z,99808.84
2023-03-29T23:18:27.872Z,99812.28
2023-03-29T23:20:59.630Z,99821.00
2023-03-29T23:23:27.120Z,99823.13
2023-03-29T23:25:55.853Z,99797.75
2023-03-29T23:28:24.997Z,99803.09
2023-03-29T23:31:03.214Z,99804.19
2023-03-29T23:33:33.771Z,99799.28
2023-03-29T23:36:04.852Z,99794.88
2023-03-29T23:38:35.837Z,99789.03
2023-03-29T23:41:07.242Z,99799.38
2023-03-29T23:43:37.233Z,99798.28
2023-03-29T23:46:06.124Z,99799.41
2023-03-29T23:48:34.405Z,99805.94
2023-03-29T23:51:02.492Z,99795.84
2023-03-29T23:53:30.243Z,99799.91
2023-03-29T23:56:01.458Z,99803.50
2023-03-29T23:58:29.185Z,99794.13
